Time;durP1;ratioP1;P1;durP2;ratioP2;P2;SDS_P1;SDS_P2;PMS_P1;PMS_P2;Temp;Humidity;BMP_temperature;BMP_pressure;BME280_temperature;BME280_humidity;BME280_pressure;Samples;Min_cycle;Max_cycle;Signal;HPM_P1;HPM_P2
2020/12/26 00:00:24;;;;;;;487.45;172.55;;;23.70;48.20;;;;;;5053528;28;20029;-48
2020/12/26 00:02:50;;;;;;;642.70;271.45;;;23.70;48.30;;;;;;5053774;28;20025;-48
2020/12/26 00:05:17;;;;;;;691.15;285.15;;;23.70;48.30;;;;;;5052827;28;20021;-48
2020/12/26 00:07:44;;;;;;;633.72;265.52;;;23.70;48.50;;;;;;5053671;28;20112;-48
2020/12/26 00:10:10;;;;;;;607.15;252.35;;;23.70;48.50;;;;;;5053398;28;20049;-48
2020/12/26 00:12:37;;;;;;;602.45;242.65;;;23.70;48.50;;;;;;5053745;28;20061;-48
2020/12/26 00:15:04;;;;;;;577.83;232.75;;;23.70;48.60;;;;;;5053064;28;20033;-47
2020/12/26 00:17:30;;;;;;;528.40;203.55;;;23.70;48.60;;;;;;5053638;28;20025;-48
2020/12/26 00:19:57;;;;;;;550.58;215.73;;;23.80;48.70;;;;;;5053592;28;20028;-48
2020/12/26 00:22:23;;;;;;;534.05;203.65;;;23.80;48.60;;;;;;5053557;28;20029;-48
2020/12/26 00:24:50;;;;;;;520.22;201.55;;;23.80;48.50;;;;;;5053107;28;20021;-47
2020/12/26 00:27:16;;;;;;;511.40;195.82;;;23.90;48.40;;;;;;5053092;28;20544;-48
2020/12/26 00:29:43;;;;;;;497.20;189.23;;;23.90;48.40;;;;;;5053255;28;20025;-48
2020/12/26 00:32:09;;;;;;;490.20;184.23;;;24.00;48.50;;;;;;5053665;28;20479;-48
2020/12/26 00:34:40;;;;;;;477.92;178.00;;;24.00;48.50;;;;;;5053521;28;20025;-48
2020/12/26 00:37:06;;;;;;;467.13;169.75;;;24.10;48.50;;;;;;5053353;28;20037;-47
2020/12/26 00:39:33;;;;;;;429.90;147.15;;;24.10;48.40;;;;;;5053029;28;20079;-48
2020/12/26 00:41:59;;;;;;;424.88;154.52;;;24.20;48.60;;;;;;5053474;28;20035;-47
2020/12/26 00:44:26;;;;;;;422.70;138.75;;;24.20;48.60;;;;;;5053555;28;20079;-48
2020/12/26 00:46:52;;;;;;;412.88;142.98;;;24.30;48.60;;;;;;5053408;28;20044;-48
2020/12/26 00:49:19;;;;;;;383.45;133.30;;;24.40;48.50;;;;;;5053116;28;20100;-48
2020/12/26 00:51:48;;;;;;;386.83;134.68;;;24.40;48.50;;;;;;5047598;28;20036;-48
2020/12/26 00:54:15;;;;;;;354.85;127.25;;;24.50;48.30;;;;;;5035701;28;20445;-47
2020/12/26 00:56:41;;;;;;;368.08;131.52;;;24.50;48.30;;;;;;5037094;28;20032;-48
2020/12/26 00:59:08;;;;;;;322.38;115.22;;;24.50;48.20;;;;;;5057163;28;20466;-48
2020/12/26 01:01:34;;;;;;;326.23;110.00;;;24.50;48.20;;;;;;5057099;28;20029;-48
2020/12/26 01:04:01;;;;;;;313.60;110.43;;;24.60;48.20;;;;;;5056777;28;20358;-48
2020/12/26 01:06:27;;;;;;;299.15;108.57;;;24.60;48.20;;;;;;5056683;28;20033;-48
2020/12/26 01:08:54;;;;;;;280.65;100.78;;;24.60;48.10;;;;;;5056747;28;20017;-48
2020/12/26 01:11:20;;;;;;;290.52;104.65;;;24.50;48.00;;;;;;5056911;28;20274;-48
2020/12/26 01:13:47;;;;;;;261.45;91.18;;;24.60;48.00;;;;;;5056769;28;20503;-48
2020/12/26 01:16:14;;;;;;;264.08;95.57;;;24.60;48.00;;;;;;5056775;28;20075;-48
2020/12/26 01:18:41;;;;;;;262.13;96.90;;;24.60;47.90;;;;;;5056697;28;20104;-48
2020/12/26 01:21:08;;;;;;;255.00;91.32;;;24.70;47.90;;;;;;5056353;28;20029;-47
2020/12/26 01:23:35;;;;;;;233.27;88.35;;;24.70;47.90;;;;;;5056622;28;20025;-48
2020/12/26 01:26:01;;;;;;;235.70;84.43;;;24.80;47.70;;;;;;5056416;28;20024;-48
2020/12/26 01:28:28;;;;;;;220.18;81.10;;;24.80;47.70;;;;;;5056385;28;20017;-47
2020/12/26 01:30:54;;;;;;;218.32;78.28;;;24.90;47.70;;;;;;5056115;28;20106;-48
2020/12/26 01:33:21;;;;;;;202.40;76.18;;;24.90;47.60;;;;;;5056190;28;20421;-48
2020/12/26 01:35:47;;;;;;;216.35;76.78;;;25.00;47.50;;;;;;5056098;28;20037;-48
2020/12/26 01:38:14;;;;;;;208.85;76.80;;;25.00;47.40;;;;;;5056405;28;20025;-48
2020/12/26 01:40:50;;;;;;;208.30;72.40;;;25.10;47.40;;;;;;5056610;28;20032;-49
2020/12/26 01:43:18;;;;;;;182.05;67.93;;;25.20;47.30;;;;;;5056553;28;20078;-48
2020/12/26 01:45:46;;;;;;;191.98;67.90;;;25.20;47.30;;;;;;5055804;28;20036;-47
2020/12/26 01:48:16;;;;;;;164.27;64.47;;;25.20;47.10;;;;;;5055793;28;20029;-48
2020/12/26 01:50:44;;;;;;;171.23;62.55;;;25.30;47.10;;;;;;5055729;28;20076;-48
2020/12/26 01:53:11;;;;;;;160.25;61.55;;;25.30;47.00;;;;;;5055688;28;20029;-48
2020/12/26 01:55:41;;;;;;;161.35;59.95;;;25.40;47.00;;;;;;5056042;28;20476;-48
2020/12/26 01:58:13;;;;;;;148.57;56.97;;;25.50;46.90;;;;;;5055947;28;20040;-48
2020/12/26 02:00:40;;;;;;;149.50;56.80;;;25.50;47.40;;;;;;5055887;28;20477;-48
2020/12/26 02:03:07;;;;;;;139.18;53.55;;;25.60;46.80;;;;;;5055568;28;20056;-47
2020/12/26 02:05:33;;;;;;;131.05;53.25;;;25.60;46.70;;;;;;5055852;28;20075;-47
2020/12/26 02:08:00;;;;;;;131.60;52.45;;;25.60;46.60;;;;;;5055449;28;20029;-47
2020/12/26 02:10:27;;;;;;;141.68;52.17;;;25.70;46.60;;;;;;5055616;28;20053;-48
2020/12/26 02:12:53;;;;;;;125.95;49.80;;;25.70;46.50;;;;;;5055747;28;20029;-48
2020/12/26 02:15:20;;;;;;;110.15;45.03;;;25.70;46.40;;;;;;5055630;28;20039;-48
2020/12/26 02:17:46;;;;;;;112.30;44.85;;;25.80;46.50;;;;;;5055826;28;20032;-48
2020/12/26 02:20:13;;;;;;;105.65;44.70;;;25.80;46.40;;;;;;5056129;28;20119;-48
2020/12/26 02:22:41;;;;;;;111.93;44.17;;;25.90;46.30;;;;;;5054010;28;20032;-48
2020/12/26 02:25:07;;;;;;;111.20;43.03;;;25.90;46.20;;;;;;5054887;28;20464;-47
2020/12/26 02:27:34;;;;;;;106.38;41.80;;;26.00;46.20;;;;;;5055456;28;20465;-47
2020/12/26 02:30:00;;;;;;;97.13;40.22;;;26.10;46.20;;;;;;5055104;28;20107;-47
2020/12/26 02:32:27;;;;;;;93.57;39.42;;;26.10;46.00;;;;;;5055268;28;20023;-47
2020/12/26 02:34:53;;;;;;;92.50;38.80;;;26.10;46.00;;;;;;5054697;28;20035;-46
2020/12/26 02:37:19;;;;;;;93.80;38.53;;;26.20;46.00;;;;;;5053592;28;20521;-47
2020/12/26 02:39:46;;;;;;;93.80;37.45;;;26.20;45.90;;;;;;5054955;28;20060;-48
2020/12/26 02:42:14;;;;;;;83.72;36.03;;;26.20;45.70;;;;;;5054673;28;20528;-49
2020/12/26 02:44:40;;;;;;;86.30;35.17;;;26.30;45.70;;;;;;5054620;28;20384;-47
2020/12/26 02:47:06;;;;;;;89.45;35.33;;;26.30;45.70;;;;;;5054609;28;20025;-48
2020/12/26 02:49:33;;;;;;;87.78;36.30;;;26.30;45.50;;;;;;5053232;28;20411;-47
2020/12/26 02:52:00;;;;;;;89.55;33.63;;;26.30;45.40;;;;;;5053979;28;20468;-48
2020/12/26 02:54:26;;;;;;;85.85;33.05;;;26.30;45.20;;;;;;5053697;28;20033;-48
2020/12/26 02:56:53;;;;;;;73.47;32.30;;;26.30;45.30;;;;;;5052785;28;20211;-48
2020/12/26 02:59:19;;;;;;;70.18;32.35;;;26.30;45.30;;;;;;5053396;28;20472;-47
2020/12/26 03:01:45;;;;;;;73.25;31.02;;;26.20;45.20;;;;;;5054791;28;20077;-47
2020/12/26 03:04:12;;;;;;;68.53;29.50;;;26.20;45.30;;;;;;5052772;28;20017;-48
2020/12/26 03:06:39;;;;;;;70.57;29.02;;;26.20;45.40;;;;;;5054995;28;20404;-48
2020/12/26 03:09:05;;;;;;;69.50;29.45;;;26.10;45.30;;;;;;5054408;28;20025;-48
2020/12/26 03:11:32;;;;;;;60.80;26.27;;;26.10;45.40;;;;;;5053743;28;20057;-48
2020/12/26 03:13:58;;;;;;;65.50;28.77;;;26.10;45.50;;;;;;5053814;28;20036;-48
2020/12/26 03:16:24;;;;;;;63.30;28.63;;;26.00;45.40;;;;;;5054518;28;20114;-48
2020/12/26 03:18:51;;;;;;;63.95;27.50;;;25.90;45.40;;;;;;5054765;28;20159;-48
2020/12/26 03:21:17;;;;;;;56.72;25.75;;;25.90;45.50;;;;;;5053930;28;20056;-47
2020/12/26 03:23:44;;;;;;;67.88;26.25;;;25.90;45.50;;;;;;5054378;28;20490;-47
2020/12/26 03:26:11;;;;;;;71.25;24.20;;;25.80;45.50;;;;;;5053969;28;20032;-48
2020/12/26 03:28:37;;;;;;;58.13;25.20;;;25.80;45.70;;;;;;5054343;28;20021;-48
2020/12/26 03:31:04;;;;;;;56.78;22.38;;;25.70;45.70;;;;;;5052642;28;20041;-47
2020/12/26 03:33:31;;;;;;;58.35;23.35;;;25.70;45.90;;;;;;5054492;28;20027;-47
2020/12/26 03:35:57;;;;;;;55.00;21.90;;;25.60;45.80;;;;;;5054185;28;20025;-48
2020/12/26 03:38:24;;;;;;;47.88;22.90;;;25.60;45.90;;;;;;5053790;28;20040;-47
2020/12/26 03:40:50;;;;;;;50.15;21.52;;;25.60;46.00;;;;;;5054023;28;20083;-47
2020/12/26 03:43:17;;;;;;;52.03;22.63;;;25.50;46.00;;;;;;5054294;28;20491;-48
2020/12/26 03:45:43;;;;;;;46.72;21.33;;;25.50;46.10;;;;;;5053879;28;20020;-48
2020/12/26 03:48:10;;;;;;;44.05;20.10;;;25.40;46.10;;;;;;5054024;28;20029;-48
2020/12/26 03:50:36;;;;;;;43.88;18.83;;;25.30;46.20;;;;;;5053394;28;20041;-47
2020/12/26 03:53:03;;;;;;;40.70;20.25;;;25.30;46.20;;;;;;5053917;28;20048;-49
2020/12/26 03:55:29;;;;;;;39.45;19.85;;;25.20;46.30;;;;;;5053985;28;20035;-49
2020/12/26 03:57:56;;;;;;;40.28;18.60;;;25.20;46.40;;;;;;5053851;28;20100;-49
2020/12/26 04:00:22;;;;;;;41.65;18.58;;;25.10;46.40;;;;;;5053868;28;20041;-48
2020/12/26 04:02:49;;;;;;;41.80;18.45;;;25.10;46.50;;;;;;5053447;28;20040;-48
2020/12/26 04:05:15;;;;;;;38.97;18.23;;;25.00;46.60;;;;;;5054083;28;20453;-47
2020/12/26 04:07:42;;;;;;;38.15;17.27;;;25.00;46.70;;;;;;5053551;28;20032;-47
2020/12/26 04:10:08;;;;;;;38.17;17.52;;;24.90;46.80;;;;;;5053418;28;20512;-48
2020/12/26 04:12:35;;;;;;;38.75;17.17;;;24.80;46.80;;;;;;5053599;28;20029;-48
2020/12/26 04:15:01;;;;;;;34.25;17.08;;;24.80;46.90;;;;;;5053445;28;20029;-48
2020/12/26 04:17:28;;;;;;;38.90;16.88;;;24.70;47.00;;;;;;5053701;28;20151;-49
2020/12/26 04:19:54;;;;;;;34.28;16.60;;;24.70;47.10;;;;;;5069185;28;20021;-48
2020/12/26 04:22:21;;;;;;;43.22;17.38;;;24.60;47.10;;;;;;5053667;28;20025;-47
2020/12/26 04:24:47;;;;;;;31.60;15.40;;;24.50;47.30;;;;;;5053285;28;20021;-47
2020/12/26 04:27:14;;;;;;;33.95;15.27;;;24.50;47.40;;;;;;5053631;28;20469;-47
2020/12/26 04:29:42;;;;;;;34.65;16.90;;;24.40;47.50;;;;;;5053596;28;20200;-47
2020/12/26 04:32:08;;;;;;;32.28;15.88;;;24.40;47.60;;;;;;5054550;28;20033;-47
2020/12/26 04:34:35;;;;;;;36.35;16.33;;;24.30;47.70;;;;;;5057902;28;20365;-47
2020/12/26 04:37:01;;;;;;;37.47;16.25;;;24.20;47.70;;;;;;5057547;28;20528;-49
2020/12/26 04:39:28;;;;;;;30.42;14.60;;;24.20;47.90;;;;;;5057534;28;20025;-48
2020/12/26 04:41:54;;;;;;;30.63;15.43;;;24.10;48.00;;;;;;5057455;28;20029;-47
2020/12/26 04:44:21;;;;;;;30.60;15.05;;;24.10;48.10;;;;;;5057440;28;20021;-48
2020/12/26 04:46:49;;;;;;;31.65;15.05;;;24.00;48.20;;;;;;5057227;28;20029;-48
2020/12/26 04:49:20;;;;;;;30.80;14.75;;;24.00;48.30;;;;;;5056942;28;20427;-48
2020/12/26 04:51:52;;;;;;;30.42;14.60;;;23.90;48.40;;;;;;5057522;28;20033;-47
2020/12/26 04:54:25;;;;;;;27.75;13.45;;;23.90;48.40;;;;;;5057312;28;20032;-47
2020/12/26 04:56:56;;;;;;;29.48;14.30;;;23.90;48.50;;;;;;5056819;28;20033;-48
2020/12/26 04:59:24;;;;;;;28.00;13.57;;;23.90;48.60;;;;;;5037843;28;20346;-48
2020/12/26 05:01:52;;;;;;;28.92;13.23;;;23.80;48.60;;;;;;5037149;28;20036;-48
2020/12/26 05:04:20;;;;;;;36.58;13.57;;;23.80;48.60;;;;;;5044832;28;20029;-47
2020/12/26 05:06:48;;;;;;;31.10;13.65;;;23.80;48.60;;;;;;5057257;28;20021;-47
2020/12/26 05:09:15;;;;;;;31.65;13.00;;;23.80;48.70;;;;;;5057459;28;20033;-48
2020/12/26 05:11:55;;;;;;;29.05;12.50;;;23.80;48.80;;;;;;5057343;28;20053;-47
2020/12/26 05:14:23;;;;;;;28.13;12.90;;;23.80;48.80;;;;;;5057338;28;20472;-47
2020/12/26 05:16:50;;;;;;;24.50;12.63;;;23.80;48.80;;;;;;5055080;28;20033;-48
2020/12/26 05:19:16;;;;;;;28.08;12.45;;;23.80;48.80;;;;;;5055377;28;20108;-47
2020/12/26 05:21:51;;;;;;;37.25;13.50;;;23.80;48.80;;;;;;5056729;28;20511;-47
2020/12/26 05:24:18;;;;;;;35.45;12.57;;;23.70;48.70;;;;;;5055862;28;20057;-47
2020/12/26 05:26:46;;;;;;;35.92;12.35;;;23.70;48.70;;;;;;5055265;28;20017;-47
2020/12/26 05:29:15;;;;;;;25.98;10.65;;;23.70;48.80;;;;;;5056582;28;20182;-47
2020/12/26 05:32:04;;;;;;;40.67;12.02;;;23.70;48.90;;;;;;5056202;28;20044;-48
2020/12/26 05:34:35;;;;;;;32.38;11.77;;;23.70;49.00;;;;;;5056595;28;20016;-48
2020/12/26 05:37:05;;;;;;;30.35;11.43;;;23.60;49.00;;;;;;5057213;28;20063;-48
2020/12/26 05:39:39;;;;;;;22.85;10.77;;;23.60;49.10;;;;;;5056043;28;20138;-48
2020/12/26 05:42:07;;;;;;;28.77;11.38;;;23.60;49.10;;;;;;5056125;28;20029;-48
2020/12/26 05:44:36;;;;;;;21.88;9.65;;;23.60;49.10;;;;;;5054335;28;20029;-48
2020/12/26 05:47:06;;;;;;;23.52;9.98;;;23.60;49.20;;;;;;5055838;28;20059;-48
2020/12/26 05:49:35;;;;;;;19.73;9.98;;;23.60;49.20;;;;;;5036276;28;20033;-48
2020/12/26 05:52:09;;;;;;;27.30;9.55;;;23.60;49.20;;;;;;5036157;28;20029;-48
2020/12/26 05:54:49;;;;;;;19.75;9.18;;;23.60;49.20;;;;;;5036448;28;20034;-49
2020/12/26 05:57:17;;;;;;;20.48;9.40;;;23.60;49.20;;;;;;5051220;28;20100;-49
2020/12/26 05:59:52;;;;;;;23.67;9.48;;;23.60;49.20;;;;;;5055119;28;20033;-48
2020/12/26 06:02:20;;;;;;;25.73;9.25;;;23.70;49.20;;;;;;5055845;28;20369;-48
2020/12/26 06:05:05;;;;;;;18.95;8.85;;;23.70;49.20;;;;;;5055350;28;20131;-48
2020/12/26 06:07:37;;;;;;;20.80;9.00;;;23.80;49.30;;;;;;5055583;28;20107;-47
2020/12/26 06:10:08;;;;;;;19.02;8.98;;;23.80;49.20;;;;;;5055859;28;20040;-47
2020/12/26 06:12:35;;;;;;;17.73;7.87;;;23.80;49.20;;;;;;5055637;28;20083;-48
2020/12/26 06:15:02;;;;;;;17.42;8.13;;;23.90;49.20;;;;;;5055774;28;20106;-48
2020/12/26 06:17:33;;;;;;;17.10;7.68;;;23.90;49.20;;;;;;5055647;28;20036;-47
2020/12/26 06:20:08;;;;;;;20.83;7.85;;;23.90;49.10;;;;;;5055411;28;20029;-47
2020/12/26 06:22:49;;;;;;;13.43;6.78;;;24.00;49.10;;;;;;5053833;28;20523;-48
2020/12/26 06:25:22;;;;;;;24.17;8.30;;;24.00;48.90;;;;;;5052322;28;20116;-49
2020/12/26 17:01:14;;;;;;;6.13;1.65;;;24.00;49.40;;;;;;5047529;27;2458734;-46
2020/12/26 17:03:42;;;;;;;9.40;1.42;;;24.00;50.40;;;;;;5092000;28;20028;-48
2020/12/26 17:06:15;;;;;;;7.97;1.52;;;24.10;50.20;;;;;;5100051;28;20107;-47
2020/12/26 17:08:42;;;;;;;5.88;1.20;;;24.20;49.80;;;;;;5111627;28;20024;-47
2020/12/26 17:11:10;;;;;;;8.77;1.42;;;24.40;49.80;;;;;;5100633;28;20412;-47
2020/12/26 17:13:37;;;;;;;9.30;1.35;;;24.40;49.60;;;;;;5091699;28;20047;-46
2020/12/26 17:16:14;;;;;;;7.97;1.60;;;24.50;49.40;;;;;;5091076;28;20081;-47
2020/12/26 17:18:42;;;;;;;7.50;1.60;;;24.60;49.00;;;;;;5101189;28;20058;-47
2020/12/26 17:21:09;;;;;;;8.20;1.83;;;24.70;48.90;;;;;;5111451;28;20103;-47
2020/12/26 17:23:37;;;;;;;8.30;1.50;;;24.80;48.50;;;;;;5111097;28;20077;-47
2020/12/26 17:26:13;;;;;;;10.25;1.58;;;24.90;48.20;;;;;;5111173;28;20442;-48
2020/12/26 17:28:39;;;;;;;7.32;1.27;;;24.90;47.90;;;;;;5111209;28;20103;-46
2020/12/26 17:31:06;;;;;;;6.00;1.48;;;25.00;47.80;;;;;;5098607;28;20020;-47
2020/12/26 17:33:33;;;;;;;7.75;1.67;;;25.10;47.60;;;;;;5095967;28;20363;-48
2020/12/26 17:35:59;;;;;;;6.32;1.58;;;25.20;47.50;;;;;;5096041;28;20024;-47
2020/12/26 17:38:25;;;;;;;5.30;1.35;;;25.20;47.30;;;;;;5089533;28;20023;-47
2020/12/26 17:40:52;;;;;;;5.75;1.70;;;25.30;47.20;;;;;;5110976;28;20111;-48
2020/12/26 17:43:19;;;;;;;5.70;1.38;;;25.40;47.10;;;;;;5110580;28;20455;-47
2020/12/26 17:45:45;;;;;;;6.35;1.25;;;25.50;46.90;;;;;;5110945;28;20527;-47
2020/12/26 17:48:12;;;;;;;6.18;1.60;;;25.50;46.70;;;;;;5110123;28;20080;-48
2020/12/26 17:50:38;;;;;;;8.18;1.58;;;25.70;46.70;;;;;;5111428;28;20024;-47
2020/12/26 17:53:05;;;;;;;10.10;1.60;;;25.70;46.50;;;;;;5110748;28;20051;-47
2020/12/26 17:55:31;;;;;;;11.15;1.40;;;25.80;46.40;;;;;;5110715;28;20027;-47
2020/12/26 17:57:58;;;;;;;7.18;1.40;;;25.90;46.20;;;;;;5110686;28;20382;-47
2020/12/26 18:00:26;;;;;;;6.68;1.40;;;26.00;46.10;;;;;;5107875;28;20468;-49
2020/12/26 18:02:53;;;;;;;9.18;1.40;;;26.10;46.00;;;;;;5110664;28;20103;-47
2020/12/26 18:05:19;;;;;;;7.00;1.30;;;26.20;45.90;;;;;;5108539;28;20023;-47
2020/12/26 18:07:46;;;;;;;5.53;1.23;;;26.20;45.70;;;;;;5110618;28;20027;-47
2020/12/26 18:10:13;;;;;;;4.60;1.45;;;26.30;45.60;;;;;;5107331;28;20028;-47
2020/12/26 18:12:39;;;;;;;8.13;1.40;;;26.40;45.50;;;;;;5083293;28;20034;-47
2020/12/26 18:15:06;;;;;;;7.07;1.30;;;26.40;45.40;;;;;;5096618;28;20421;-47
2020/12/26 18:17:32;;;;;;;4.80;1.20;;;26.50;45.30;;;;;;5097066;28;20062;-47
2020/12/26 18:19:59;;;;;;;4.88;1.40;;;26.50;45.20;;;;;;5096838;28;20526;-47
2020/12/26 18:22:25;;;;;;;4.20;1.13;;;26.60;45.10;;;;;;5096397;28;20532;-47
2020/12/26 18:24:52;;;;;;;3.83;1.25;;;26.60;44.90;;;;;;5096776;28;20012;-47
2020/12/26 18:27:18;;;;;;;7.38;0.95;;;26.70;44.90;;;;;;5096555;28;20375;-47
2020/12/26 18:29:44;;;;;;;7.28;1.52;;;26.70;44.80;;;;;;5096442;28;20120;-47
2020/12/26 18:32:11;;;;;;;12.00;1.65;;;26.80;44.80;;;;;;5094724;28;20026;-47
2020/12/26 18:34:37;;;;;;;9.63;1.63;;;26.80;44.40;;;;;;5084960;28;20027;-49
2020/12/26 18:37:04;;;;;;;8.13;1.45;;;26.90;44.40;;;;;;5096219;28;20039;-48
2020/12/26 18:39:30;;;;;;;10.40;1.40;;;27.00;44.40;;;;;;5099496;28;20058;-48
2020/12/26 18:42:06;;;;;;;13.70;1.50;;;27.00;44.30;;;;;;5096897;28;20060;-48
2020/12/26 18:44:32;;;;;;;8.45;1.60;;;27.00;44.10;;;;;;5094614;28;20031;-48
2020/12/26 18:46:59;;;;;;;9.32;1.30;;;27.10;44.10;;;;;;5093509;28;20028;-48
2020/12/26 18:49:25;;;;;;;7.78;1.50;;;27.20;44.10;;;;;;5075222;28;20115;-48
2020/12/26 18:51:52;;;;;;;5.82;1.25;;;27.20;44.10;;;;;;5075791;28;20032;-48
2020/12/26 18:54:18;;;;;;;9.10;1.20;;;27.30;44.00;;;;;;5075734;28;20379;-48
2020/12/26 18:56:45;;;;;;;4.78;1.23;;;27.40;43.90;;;;;;5075841;28;20059;-48
2020/12/26 18:59:11;;;;;;;6.80;1.45;;;27.40;43.70;;;;;;5075603;28;20048;-48
2020/12/26 19:01:37;;;;;;;3.15;1.20;;;27.50;43.80;;;;;;5090732;28;20385;-48
2020/12/26 19:04:04;;;;;;;4.63;1.08;;;27.50;43.70;;;;;;5095639;28;20020;-48
2020/12/26 19:06:30;;;;;;;3.63;1.30;;;27.50;43.50;;;;;;5095105;28;20464;-49
2020/12/26 19:08:57;;;;;;;8.65;1.65;;;27.60;43.70;;;;;;5095746;28;20031;-48
2020/12/26 19:11:23;;;;;;;10.07;1.75;;;27.60;43.50;;;;;;5080470;28;20033;-48
2020/12/26 19:13:52;;;;;;;10.70;1.67;;;27.60;43.40;;;;;;5075489;28;20020;-48
2020/12/26 19:16:18;;;;;;;8.27;1.90;;;27.60;43.30;;;;;;5075421;28;20048;-48
2020/12/26 19:18:44;;;;;;;9.52;1.63;;;27.60;43.20;;;;;;5075602;28;20028;-48
2020/12/26 19:21:13;;;;;;;7.20;1.67;;;27.60;43.20;;;;;;5075364;28;20024;-48
2020/12/26 19:23:41;;;;;;;4.18;1.50;;;27.60;43.40;;;;;;5074282;28;20060;-48
2020/12/26 19:26:08;;;;;;;7.05;1.45;;;27.50;43.20;;;;;;5089849;28;20525;-48
2020/12/26 19:28:34;;;;;;;21.17;1.85;;;27.50;42.90;;;;;;5083659;28;20031;-48
2020/12/26 19:31:01;;;;;;;12.95;2.22;;;27.50;42.60;;;;;;5083359;28;20035;-48
2020/12/26 19:33:28;;;;;;;12.55;1.92;;;27.50;42.70;;;;;;5084984;28;20506;-48
2020/12/26 19:35:54;;;;;;;9.25;2.17;;;27.50;42.80;;;;;;5074968;28;20021;-48
2020/12/26 19:38:22;;;;;;;9.25;1.67;;;27.60;42.90;;;;;;5074868;28;20021;-48
2020/12/26 19:40:49;;;;;;;7.80;1.77;;;27.70;43.00;;;;;;5074975;28;20456;-48
2020/12/26 19:43:16;;;;;;;7.32;1.63;;;27.80;43.00;;;;;;5075209;28;20432;-48
2020/12/26 19:45:42;;;;;;;8.18;1.95;;;27.90;43.00;;;;;;5074876;28;20024;-48
2020/12/26 19:48:09;;;;;;;11.85;2.20;;;27.90;42.80;;;;;;5074500;28;20065;-48
2020/12/26 19:50:35;;;;;;;8.23;1.60;;;28.10;42.80;;;;;;5074742;28;20031;-48
2020/12/26 19:53:03;;;;;;;5.85;1.77;;;28.20;42.70;;;;;;5074421;28;20023;-48
2020/12/26 19:55:31;;;;;;;5.78;1.73;;;28.40;42.60;;;;;;5074523;28;20361;-48
2020/12/26 19:57:58;;;;;;;7.32;1.60;;;28.60;42.60;;;;;;5074592;28;20468;-48
2020/12/26 20:00:25;;;;;;;8.75;1.70;;;28.70;42.40;;;;;;5072877;28;20052;-48
2020/12/26 20:02:51;;;;;;;5.68;1.60;;;28.90;42.30;;;;;;5073235;28;20449;-48
2020/12/26 20:05:17;;;;;;;4.70;1.75;;;29.00;42.10;;;;;;5074345;28;20029;-48
2020/12/26 20:07:44;;;;;;;5.20;1.60;;;29.20;41.90;;;;;;5074195;28;20021;-48
2020/12/26 20:10:10;;;;;;;5.18;1.58;;;29.30;41.70;;;;;;5074700;28;20115;-48
2020/12/26 20:12:38;;;;;;;5.00;1.55;;;29.50;41.60;;;;;;5074376;28;20024;-48
2020/12/26 20:15:04;;;;;;;6.70;1.60;;;29.60;41.40;;;;;;5074353;28;20029;-48
2020/12/26 20:17:32;;;;;;;4.45;1.60;;;29.70;41.20;;;;;;5074318;28;20059;-48
2020/12/26 20:19:59;;;;;;;5.43;1.50;;;29.80;41.10;;;;;;5074198;28;20082;-48
2020/12/26 20:22:25;;;;;;;4.53;1.70;;;29.90;41.00;;;;;;5074227;28;20028;-48
2020/12/26 20:24:52;;;;;;;7.20;1.80;;;30.00;40.90;;;;;;5074126;28;20048;-48
2020/12/26 20:27:18;;;;;;;3.22;1.48;;;30.10;40.80;;;;;;5073845;28;20056;-48
2020/12/26 20:29:45;;;;;;;3.40;1.63;;;30.10;40.60;;;;;;5074136;28;20029;-48
2020/12/26 20:32:11;;;;;;;5.70;1.50;;;30.20;40.60;;;;;;5074066;28;20025;-48
2020/12/26 20:34:38;;;;;;;7.53;1.58;;;30.30;40.50;;;;;;5073785;28;20043;-48
2020/12/26 20:37:04;;;;;;;5.22;1.35;;;30.30;40.40;;;;;;5073908;28;20031;-48
2020/12/26 20:39:31;;;;;;;4.43;1.45;;;30.40;40.40;;;;;;5074016;28;20032;-48
2020/12/26 20:41:58;;;;;;;4.10;1.50;;;30.40;40.20;;;;;;5073853;28;20032;-48
2020/12/26 20:44:25;;;;;;;2.78;1.35;;;30.40;40.30;;;;;;5073819;28;20115;-48
2020/12/26 20:46:52;;;;;;;4.57;1.83;;;30.50;40.20;;;;;;5073803;28;20025;-48
2020/12/26 20:49:19;;;;;;;3.35;1.60;;;30.50;40.20;;;;;;5073815;28;20451;-48
2020/12/26 20:51:45;;;;;;;2.88;1.30;;;30.50;40.20;;;;;;5072733;28;20044;-48
2020/12/26 20:54:12;;;;;;;3.40;1.50;;;30.50;40.10;;;;;;5074181;28;20094;-48
2020/12/26 20:56:38;;;;;;;5.60;1.60;;;30.50;40.00;;;;;;5073865;28;20028;-48
2020/12/26 20:59:05;;;;;;;4.95;1.38;;;30.60;40.10;;;;;;5073296;28;20399;-48
2020/12/26 21:01:31;;;;;;;2.95;1.30;;;30.60;40.00;;;;;;5073795;28;20028;-48
2020/12/26 21:03:58;;;;;;;3.53;1.30;;;30.60;40.10;;;;;;5073898;28;20522;-48
2020/12/26 21:06:24;;;;;;;3.20;1.35;;;30.50;40.00;;;;;;5073437;28;20024;-48
2020/12/26 21:08:51;;;;;;;2.42;1.20;;;30.50;39.90;;;;;;5072268;28;20425;-48
2020/12/26 21:11:17;;;;;;;3.38;1.40;;;30.50;39.90;;;;;;5073841;28;20037;-48
2020/12/26 21:13:44;;;;;;;3.70;1.50;;;30.50;39.90;;;;;;5073651;28;20062;-48
2020/12/26 21:16:14;;;;;;;3.30;1.30;;;30.50;40.00;;;;;;5073647;28;20029;-48
2020/12/26 21:18:45;;;;;;;2.88;1.42;;;30.50;39.90;;;;;;5073855;28;20017;-48
2020/12/26 21:21:18;;;;;;;4.72;1.27;;;30.40;39.90;;;;;;5073660;28;20017;-48
2020/12/26 21:23:44;;;;;;;2.95;1.30;;;30.40;40.10;;;;;;5073342;28;20400;-48
2020/12/26 21:26:11;;;;;;;3.15;1.40;;;30.30;40.00;;;;;;5073173;28;20017;-48
2020/12/26 21:28:37;;;;;;;2.30;1.20;;;30.30;40.10;;;;;;5073481;28;20115;-48
2020/12/26 21:31:05;;;;;;;2.85;1.60;;;30.20;40.00;;;;;;5073509;28;20033;-48
2020/12/26 21:33:32;;;;;;;3.60;1.25;;;30.20;40.10;;;;;;5073491;28;20024;-48
2020/12/26 21:35:58;;;;;;;3.15;1.52;;;30.10;40.10;;;;;;5073396;28;20060;-48
2020/12/26 21:38:25;;;;;;;8.15;1.73;;;30.10;40.10;;;;;;5073423;28;20077;-48
2020/12/26 21:40:51;;;;;;;2.85;1.38;;;30.00;40.30;;;;;;5080004;28;20498;-47
2020/12/26 21:43:18;;;;;;;3.60;1.52;;;29.90;40.30;;;;;;5092618;28;20020;-48
2020/12/26 21:45:44;;;;;;;7.38;1.50;;;29.90;40.60;;;;;;5088387;28;20042;-48
2020/12/26 21:48:11;;;;;;;3.42;1.23;;;29.90;40.80;;;;;;5076770;28;20025;-48
2020/12/26 21:50:37;;;;;;;2.88;1.50;;;29.80;40.70;;;;;;5078604;28;20044;-47
2020/12/26 21:53:04;;;;;;;7.20;1.60;;;29.70;40.80;;;;;;5098956;28;20364;-48
2020/12/26 21:55:30;;;;;;;7.25;1.80;;;29.70;40.90;;;;;;5097322;28;20043;-48
2020/12/26 21:57:57;;;;;;;3.80;1.70;;;29.60;40.90;;;;;;5096910;28;20032;-48
2020/12/26 22:00:25;;;;;;;5.25;1.75;;;29.60;41.00;;;;;;5096997;28;20044;-47
2020/12/26 22:02:51;;;;;;;5.60;1.63;;;29.60;41.20;;;;;;5092602;28;20024;-47
2020/12/26 22:05:18;;;;;;;4.03;1.30;;;29.60;41.10;;;;;;5097092;28;20485;-48
2020/12/26 22:07:44;;;;;;;7.85;1.80;;;29.60;41.20;;;;;;5096986;28;20111;-47
2020/12/26 22:10:11;;;;;;;6.57;1.60;;;29.50;41.10;;;;;;5096622;28;20020;-48
2020/12/26 22:12:37;;;;;;;4.63;1.52;;;29.50;40.70;;;;;;5096813;28;20031;-48
2020/12/26 22:15:04;;;;;;;2.67;1.30;;;29.50;41.30;;;;;;5096918;28;20069;-48
2020/12/26 22:17:30;;;;;;;7.10;1.67;;;29.50;40.60;;;;;;5082994;28;20024;-48
2020/12/26 22:19:57;;;;;;;6.30;1.75;;;29.50;40.60;;;;;;5076441;28;20036;-48
2020/12/26 22:22:23;;;;;;;4.05;1.67;;;29.50;40.60;;;;;;5076485;28;20070;-48
2020/12/26 22:24:50;;;;;;;4.65;1.33;;;29.40;40.50;;;;;;5076153;28;20375;-48
2020/12/26 22:27:16;;;;;;;4.57;1.77;;;29.50;40.70;;;;;;5076394;28;20027;-48
2020/12/26 22:29:43;;;;;;;4.45;1.80;;;29.50;40.70;;;;;;5087601;28;20464;-47
2020/12/26 22:32:09;;;;;;;6.57;2.70;;;29.50;40.80;;;;;;5080369;28;20085;-48
2020/12/26 22:34:36;;;;;;;6.00;3.92;;;29.50;40.90;;;;;;5078870;28;20076;-48
2020/12/26 22:37:03;;;;;;;7.45;3.80;;;29.50;41.00;;;;;;5096725;28;20016;-48
2020/12/26 22:39:30;;;;;;;11.25;5.18;;;29.50;41.00;;;;;;5094857;28;20032;-47
2020/12/26 22:41:56;;;;;;;7.38;4.38;;;29.50;41.10;;;;;;5096371;28;20020;-46
2020/12/26 22:44:22;;;;;;;6.82;4.68;;;29.60;41.20;;;;;;5096385;28;20024;-47
2020/12/26 22:46:49;;;;;;;7.07;4.20;;;29.60;41.10;;;;;;5096116;28;20027;-47
2020/12/26 22:49:15;;;;;;;7.03;4.30;;;29.60;41.00;;;;;;5095897;28;20115;-48
2020/12/26 22:51:42;;;;;;;5.50;3.90;;;29.60;41.00;;;;;;5089341;28;20495;-47
2020/12/26 22:54:08;;;;;;;9.32;4.30;;;29.60;41.00;;;;;;5090511;28;20024;-48
2020/12/26 22:56:35;;;;;;;6.68;4.00;;;29.70;41.10;;;;;;5094769;28;20051;-47
2020/12/26 22:59:01;;;;;;;5.57;3.67;;;29.70;41.10;;;;;;5075728;28;20505;-48
2020/12/26 23:01:28;;;;;;;11.48;4.13;;;29.70;40.90;;;;;;5075380;28;20025;-47
2020/12/26 23:03:55;;;;;;;7.50;3.78;;;29.70;41.00;;;;;;5075626;28;20028;-48
2020/12/26 23:06:21;;;;;;;7.88;3.88;;;29.70;40.90;;;;;;5079475;28;20032;-47